sensor_id;sensor_type;location;lat;lon;timestamp;P1;durP1;ratioP1;P2;durP2;ratioP2
24483;SDS011;12643;51.620;7.548;2024-03-02T00:01:44;3.70;;;2.72;;
24483;SDS011;12643;51.620;7.548;2024-03-02T00:04:12;4.90;;;2.75;;
24483;SDS011;12643;51.620;7.548;2024-03-02T00:06:40;3.55;;;2.80;;
24483;SDS011;12643;51.620;7.548;2024-03-02T00:09:10;3.50;;;2.55;;
24483;SDS011;12643;51.620;7.548;2024-03-02T00:11:39;4.18;;;2.40;;
24483;SDS011;12643;51.620;7.548;2024-03-02T00:14:07;3.80;;;3.40;;
24483;SDS011;12643;51.620;7.548;2024-03-02T00:16:36;3.25;;;2.50;;
24483;SDS011;12643;51.620;7.548;2024-03-02T00:19:05;4.75;;;2.60;;
24483;SDS011;12643;51.620;7.548;2024-03-02T00:21:33;5.25;;;2.92;;
24483;SDS011;12643;51.620;7.548;2024-03-02T00:24:02;3.53;;;2.53;;
24483;SDS011;12643;51.620;7.548;2024-03-02T00:26:42;4.32;;;2.65;;
24483;SDS011;12643;51.620;7.548;2024-03-02T00:29:11;3.17;;;2.20;;
24483;SDS011;12643;51.620;7.548;2024-03-02T00:31:46;2.85;;;2.22;;
24483;SDS011;12643;51.620;7.548;2024-03-02T00:34:14;3.58;;;2.85;;
24483;SDS011;12643;51.620;7.548;2024-03-02T00:36:43;3.33;;;2.28;;
24483;SDS011;12643;51.620;7.548;2024-03-02T00:39:12;4.25;;;2.60;;
24483;SDS011;12643;51.620;7.548;2024-03-02T00:41:43;3.70;;;2.10;;
24483;SDS011;12643;51.620;7.548;2024-03-02T00:44:12;3.70;;;2.17;;
24483;SDS011;12643;51.620;7.548;2024-03-02T00:46:42;3.07;;;2.30;;
24483;SDS011;12643;51.620;7.548;2024-03-02T00:49:16;3.17;;;2.20;;
24483;SDS011;12643;51.620;7.548;2024-03-02T00:51:47;3.35;;;2.15;;
24483;SDS011;12643;51.620;7.548;2024-03-02T00:54:19;2.17;;;1.98;;
24483;SDS011;12643;51.620;7.548;2024-03-02T00:56:48;3.03;;;2.50;;
24483;SDS011;12643;51.620;7.548;2024-03-02T00:59:17;3.13;;;2.50;;
24483;SDS011;12643;51.620;7.548;2024-03-02T01:01:45;3.17;;;2.40;;
24483;SDS011;12643;51.620;7.548;2024-03-02T01:04:15;4.30;;;2.10;;
24483;SDS011;12643;51.620;7.548;2024-03-02T01:06:43;2.83;;;2.20;;
24483;SDS011;12643;51.620;7.548;2024-03-02T01:09:12;3.33;;;2.08;;
24483;SDS011;12643;51.620;7.548;2024-03-02T01:11:40;2.53;;;1.75;;
24483;SDS011;12643;51.620;7.548;2024-03-02T01:14:08;2.70;;;1.92;;
24483;SDS011;12643;51.620;7.548;2024-03-02T01:16:36;3.17;;;1.95;;
24483;SDS011;12643;51.620;7.548;2024-03-02T01:19:04;2.03;;;1.63;;
24483;SDS011;12643;51.620;7.548;2024-03-02T01:21:33;2.88;;;1.88;;
24483;SDS011;12643;51.620;7.548;2024-03-02T01:24:01;2.72;;;1.50;;
24483;SDS011;12643;51.620;7.548;2024-03-02T01:26:30;3.17;;;1.80;;
24483;SDS011;12643;51.620;7.548;2024-03-02T01:28:58;2.83;;;1.58;;
24483;SDS011;12643;51.620;7.548;2024-03-02T01:31:25;2.45;;;1.30;;
24483;SDS011;12643;51.620;7.548;2024-03-02T01:33:53;3.28;;;1.77;;
24483;SDS011;12643;51.620;7.548;2024-03-02T01:36:21;2.20;;;1.35;;
24483;SDS011;12643;51.620;7.548;2024-03-02T01:38:51;2.83;;;1.40;;
24483;SDS011;12643;51.620;7.548;2024-03-02T01:41:19;2.53;;;1.50;;
24483;SDS011;12643;51.620;7.548;2024-03-02T01:43:47;3.45;;;1.60;;
24483;SDS011;12643;51.620;7.548;2024-03-02T01:46:15;2.67;;;1.20;;
24483;SDS011;12643;51.620;7.548;2024-03-02T01:48:43;4.22;;;1.70;;
24483;SDS011;12643;51.620;7.548;2024-03-02T01:51:10;2.83;;;1.23;;
24483;SDS011;12643;51.620;7.548;2024-03-02T01:53:39;6.70;;;1.73;;
24483;SDS011;12643;51.620;7.548;2024-03-02T01:56:08;2.25;;;1.55;;
24483;SDS011;12643;51.620;7.548;2024-03-02T01:58:36;2.78;;;1.73;;
24483;SDS011;12643;51.620;7.548;2024-03-02T02:01:04;4.32;;;1.60;;
24483;SDS011;12643;51.620;7.548;2024-03-02T02:03:32;2.47;;;1.30;;
24483;SDS011;12643;51.620;7.548;2024-03-02T02:06:00;2.38;;;1.40;;
24483;SDS011;12643;51.620;7.548;2024-03-02T02:08:28;2.08;;;1.58;;
24483;SDS011;12643;51.620;7.548;2024-03-02T02:10:56;4.10;;;1.60;;
24483;SDS011;12643;51.620;7.548;2024-03-02T02:13:26;3.42;;;1.20;;
24483;SDS011;12643;51.620;7.548;2024-03-02T02:15:54;3.70;;;1.50;;
24483;SDS011;12643;51.620;7.548;2024-03-02T02:18:22;1.88;;;1.50;;
24483;SDS011;12643;51.620;7.548;2024-03-02T02:20:50;3.05;;;1.35;;
24483;SDS011;12643;51.620;7.548;2024-03-02T02:23:19;1.10;;;1.00;;
24483;SDS011;12643;51.620;7.548;2024-03-02T02:25:47;2.20;;;1.17;;
24483;SDS011;12643;51.620;7.548;2024-03-02T02:28:15;2.20;;;1.38;;
24483;SDS011;12643;51.620;7.548;2024-03-02T02:30:43;3.67;;;1.35;;
24483;SDS011;12643;51.620;7.548;2024-03-02T02:33:10;2.95;;;1.60;;
24483;SDS011;12643;51.620;7.548;2024-03-02T02:35:38;1.88;;;1.27;;
24483;SDS011;12643;51.620;7.548;2024-03-02T02:38:07;1.25;;;1.15;;
24483;SDS011;12643;51.620;7.548;2024-03-02T02:40:36;2.22;;;1.20;;
24483;SDS011;12643;51.620;7.548;2024-03-02T02:43:04;2.35;;;1.17;;
24483;SDS011;12643;51.620;7.548;2024-03-02T02:45:32;2.00;;;1.17;;
24483;SDS011;12643;51.620;7.548;2024-03-02T02:48:00;3.17;;;1.00;;
24483;SDS011;12643;51.620;7.548;2024-03-02T02:50:28;2.90;;;1.40;;
24483;SDS011;12643;51.620;7.548;2024-03-02T02:52:57;3.92;;;1.30;;
24483;SDS011;12643;51.620;7.548;2024-03-02T02:55:25;2.35;;;1.30;;
24483;SDS011;12643;51.620;7.548;2024-03-02T02:57:54;1.65;;;1.40;;
24483;SDS011;12643;51.620;7.548;2024-03-02T03:00:22;2.25;;;1.15;;
24483;SDS011;12643;51.620;7.548;2024-03-02T03:02:50;2.42;;;1.00;;
24483;SDS011;12643;51.620;7.548;2024-03-02T03:05:18;2.60;;;1.25;;
24483;SDS011;12643;51.620;7.548;2024-03-02T03:07:46;1.63;;;1.00;;
24483;SDS011;12643;51.620;7.548;2024-03-02T03:10:15;1.77;;;1.50;;
24483;SDS011;12643;51.620;7.548;2024-03-02T03:12:44;4.38;;;1.30;;
24483;SDS011;12643;51.620;7.548;2024-03-02T03:15:13;2.28;;;1.30;;
24483;SDS011;12643;51.620;7.548;2024-03-02T03:17:41;2.97;;;1.30;;
24483;SDS011;12643;51.620;7.548;2024-03-02T03:20:11;1.80;;;1.10;;
24483;SDS011;12643;51.620;7.548;2024-03-02T03:22:41;1.75;;;1.00;;
24483;SDS011;12643;51.620;7.548;2024-03-02T03:25:09;2.22;;;0.90;;
24483;SDS011;12643;51.620;7.548;2024-03-02T03:27:38;1.83;;;1.00;;
24483;SDS011;12643;51.620;7.548;2024-03-02T03:30:06;4.22;;;1.30;;
24483;SDS011;12643;51.620;7.548;2024-03-02T03:32:36;2.55;;;1.02;;
24483;SDS011;12643;51.620;7.548;2024-03-02T03:35:04;1.17;;;0.98;;
24483;SDS011;12643;51.620;7.548;2024-03-02T03:37:32;2.10;;;1.25;;
24483;SDS011;12643;51.620;7.548;2024-03-02T03:40:00;2.58;;;1.50;;
24483;SDS011;12643;51.620;7.548;2024-03-02T03:42:32;2.80;;;1.10;;
24483;SDS011;12643;51.620;7.548;2024-03-02T03:45:01;3.92;;;1.17;;
24483;SDS011;12643;51.620;7.548;2024-03-02T03:47:30;1.38;;;1.10;;
24483;SDS011;12643;51.620;7.548;2024-03-02T03:50:00;1.13;;;1.00;;
24483;SDS011;12643;51.620;7.548;2024-03-02T03:52:30;2.45;;;1.40;;
24483;SDS011;12643;51.620;7.548;2024-03-02T03:54:58;2.42;;;1.08;;
24483;SDS011;12643;51.620;7.548;2024-03-02T03:57:27;2.33;;;1.20;;
24483;SDS011;12643;51.620;7.548;2024-03-02T03:59:55;1.33;;;1.02;;
24483;SDS011;12643;51.620;7.548;2024-03-02T04:02:22;3.42;;;1.08;;
24483;SDS011;12643;51.620;7.548;2024-03-02T04:04:51;1.42;;;1.02;;
24483;SDS011;12643;51.620;7.548;2024-03-02T04:07:20;3.28;;;1.02;;
24483;SDS011;12643;51.620;7.548;2024-03-02T04:09:48;4.25;;;1.35;;
24483;SDS011;12643;51.620;7.548;2024-03-02T04:12:17;2.38;;;1.05;;
24483;SDS011;12643;51.620;7.548;2024-03-02T04:14:44;2.25;;;1.17;;
24483;SDS011;12643;51.620;7.548;2024-03-02T04:17:12;3.47;;;1.15;;
24483;SDS011;12643;51.620;7.548;2024-03-02T04:19:40;1.98;;;1.40;;
24483;SDS011;12643;51.620;7.548;2024-03-02T04:22:08;4.20;;;1.25;;
24483;SDS011;12643;51.620;7.548;2024-03-02T04:24:37;3.60;;;1.60;;
24483;SDS011;12643;51.620;7.548;2024-03-02T04:27:04;5.63;;;2.30;;
24483;SDS011;12643;51.620;7.548;2024-03-02T04:29:32;1.70;;;1.38;;
24483;SDS011;12643;51.620;7.548;2024-03-02T04:32:01;4.15;;;1.27;;
24483;SDS011;12643;51.620;7.548;2024-03-02T04:34:29;1.80;;;1.25;;
24483;SDS011;12643;51.620;7.548;2024-03-02T04:36:57;2.50;;;1.80;;
24483;SDS011;12643;51.620;7.548;2024-03-02T04:39:25;2.35;;;1.27;;
24483;SDS011;12643;51.620;7.548;2024-03-02T04:41:54;3.28;;;1.70;;
24483;SDS011;12643;51.620;7.548;2024-03-02T04:44:22;2.67;;;1.80;;
24483;SDS011;12643;51.620;7.548;2024-03-02T04:46:50;2.28;;;1.40;;
24483;SDS011;12643;51.620;7.548;2024-03-02T04:49:18;3.33;;;1.80;;
24483;SDS011;12643;51.620;7.548;2024-03-02T04:51:46;3.58;;;1.50;;
24483;SDS011;12643;51.620;7.548;2024-03-02T04:54:17;5.05;;;1.27;;
24483;SDS011;12643;51.620;7.548;2024-03-02T04:56:45;2.72;;;1.45;;
24483;SDS011;12643;51.620;7.548;2024-03-02T04:59:17;2.08;;;1.65;;
24483;SDS011;12643;51.620;7.548;2024-03-02T05:01:45;2.28;;;1.30;;
24483;SDS011;12643;51.620;7.548;2024-03-02T05:04:14;3.35;;;1.30;;
24483;SDS011;12643;51.620;7.548;2024-03-02T05:06:42;4.10;;;1.50;;
24483;SDS011;12643;51.620;7.548;2024-03-02T05:09:10;3.15;;;1.38;;
24483;SDS011;12643;51.620;7.548;2024-03-02T05:11:39;2.80;;;1.20;;
24483;SDS011;12643;51.620;7.548;2024-03-02T05:14:37;4.82;;;1.65;;
24483;SDS011;12643;51.620;7.548;2024-03-02T05:17:05;2.38;;;1.38;;
24483;SDS011;12643;51.620;7.548;2024-03-02T05:19:32;2.30;;;1.30;;
24483;SDS011;12643;51.620;7.548;2024-03-02T05:22:00;2.53;;;1.63;;
24483;SDS011;12643;51.620;7.548;2024-03-02T05:24:29;3.63;;;1.50;;
24483;SDS011;12643;51.620;7.548;2024-03-02T05:26:57;3.47;;;1.35;;
24483;SDS011;12643;51.620;7.548;2024-03-02T05:29:25;4.68;;;1.77;;
24483;SDS011;12643;51.620;7.548;2024-03-02T05:31:54;2.33;;;1.73;;
24483;SDS011;12643;51.620;7.548;2024-03-02T05:34:22;4.63;;;2.00;;
24483;SDS011;12643;51.620;7.548;2024-03-02T05:36:50;3.47;;;1.65;;
24483;SDS011;12643;51.620;7.548;2024-03-02T05:39:18;2.65;;;1.70;;
24483;SDS011;12643;51.620;7.548;2024-03-02T05:41:46;2.58;;;1.48;;
24483;SDS011;12643;51.620;7.548;2024-03-02T05:44:13;2.20;;;1.67;;
24483;SDS011;12643;51.620;7.548;2024-03-02T05:46:41;3.60;;;1.70;;
24483;SDS011;12643;51.620;7.548;2024-03-02T05:49:11;4.03;;;1.88;;
24483;SDS011;12643;51.620;7.548;2024-03-02T05:51:38;5.15;;;1.65;;
24483;SDS011;12643;51.620;7.548;2024-03-02T05:54:07;3.03;;;1.83;;
24483;SDS011;12643;51.620;7.548;2024-03-02T05:56:35;3.42;;;1.80;;
24483;SDS011;12643;51.620;7.548;2024-03-02T05:59:03;2.30;;;1.60;;
24483;SDS011;12643;51.620;7.548;2024-03-02T06:01:38;1.80;;;1.60;;
24483;SDS011;12643;51.620;7.548;2024-03-02T06:04:06;13.50;;;3.03;;
24483;SDS011;12643;51.620;7.548;2024-03-02T06:06:35;2.58;;;1.65;;
24483;SDS011;12643;51.620;7.548;2024-03-02T06:09:03;2.22;;;1.60;;
24483;SDS011;12643;51.620;7.548;2024-03-02T06:11:33;2.08;;;1.40;;
24483;SDS011;12643;51.620;7.548;2024-03-02T06:14:02;4.80;;;2.00;;
24483;SDS011;12643;51.620;7.548;2024-03-02T06:16:30;2.45;;;1.63;;
24483;SDS011;12643;51.620;7.548;2024-03-02T06:18:58;5.90;;;1.90;;
24483;SDS011;12643;51.620;7.548;2024-03-02T06:21:25;3.40;;;1.75;;
24483;SDS011;12643;51.620;7.548;2024-03-02T06:23:55;3.38;;;1.83;;
24483;SDS011;12643;51.620;7.548;2024-03-02T06:26:23;3.88;;;1.92;;
24483;SDS011;12643;51.620;7.548;2024-03-02T06:28:51;3.90;;;1.98;;
24483;SDS011;12643;51.620;7.548;2024-03-02T06:31:18;2.78;;;1.88;;
24483;SDS011;12643;51.620;7.548;2024-03-02T06:33:46;3.00;;;1.75;;
24483;SDS011;12643;51.620;7.548;2024-03-02T06:36:15;3.70;;;1.92;;
24483;SDS011;12643;51.620;7.548;2024-03-02T06:38:43;6.90;;;2.47;;
24483;SDS011;12643;51.620;7.548;2024-03-02T06:41:12;4.15;;;2.42;;
24483;SDS011;12643;51.620;7.548;2024-03-02T06:43:40;3.35;;;2.08;;
24483;SDS011;12643;51.620;7.548;2024-03-02T06:46:08;3.55;;;2.30;;
24483;SDS011;12643;51.620;7.548;2024-03-02T06:48:40;3.58;;;2.22;;
24483;SDS011;12643;51.620;7.548;2024-03-02T06:51:08;3.50;;;2.25;;
24483;SDS011;12643;51.620;7.548;2024-03-02T06:53:36;4.65;;;2.60;;
24483;SDS011;12643;51.620;7.548;2024-03-02T06:56:05;5.55;;;2.72;;
24483;SDS011;12643;51.620;7.548;2024-03-02T06:58:36;5.65;;;2.28;;
24483;SDS011;12643;51.620;7.548;2024-03-02T07:01:04;5.50;;;2.33;;
24483;SDS011;12643;51.620;7.548;2024-03-02T07:03:33;4.03;;;2.45;;
24483;SDS011;12643;51.620;7.548;2024-03-02T07:06:01;4.78;;;2.40;;
24483;SDS011;12643;51.620;7.548;2024-03-02T07:08:29;3.50;;;2.40;;
24483;SDS011;12643;51.620;7.548;2024-03-02T07:10:57;3.72;;;2.28;;
24483;SDS011;12643;51.620;7.548;2024-03-02T07:13:24;3.22;;;2.17;;
24483;SDS011;12643;51.620;7.548;2024-03-02T07:15:54;6.30;;;3.22;;
24483;SDS011;12643;51.620;7.548;2024-03-02T07:18:48;4.15;;;2.33;;
24483;SDS011;12643;51.620;7.548;2024-03-02T07:21:17;5.80;;;2.90;;
24483;SDS011;12643;51.620;7.548;2024-03-02T07:23:45;4.03;;;2.35;;
24483;SDS011;12643;51.620;7.548;2024-03-02T07:26:12;3.53;;;2.58;;
24483;SDS011;12643;51.620;7.548;2024-03-02T07:28:42;3.13;;;2.28;;
24483;SDS011;12643;51.620;7.548;2024-03-02T07:31:12;4.82;;;2.67;;
24483;SDS011;12643;51.620;7.548;2024-03-02T07:33:39;5.70;;;2.40;;
24483;SDS011;12643;51.620;7.548;2024-03-02T07:36:07;5.47;;;2.72;;
24483;SDS011;12643;51.620;7.548;2024-03-02T07:38:35;3.20;;;2.35;;
24483;SDS011;12643;51.620;7.548;2024-03-02T07:41:03;5.18;;;2.38;;
24483;SDS011;12643;51.620;7.548;2024-03-02T07:43:31;5.50;;;3.10;;
24483;SDS011;12643;51.620;7.548;2024-03-02T07:45:59;5.93;;;3.00;;
24483;SDS011;12643;51.620;7.548;2024-03-02T07:48:30;5.40;;;2.72;;
24483;SDS011;12643;51.620;7.548;2024-03-02T07:50:57;5.70;;;3.33;;
24483;SDS011;12643;51.620;7.548;2024-03-02T07:53:28;4.45;;;3.22;;
24483;SDS011;12643;51.620;7.548;2024-03-02T07:55:55;6.07;;;3.25;;
24483;SDS011;12643;51.620;7.548;2024-03-02T07:58:27;4.18;;;2.88;;
24483;SDS011;12643;51.620;7.548;2024-03-02T08:00:56;4.75;;;2.78;;
24483;SDS011;12643;51.620;7.548;2024-03-02T08:03:26;6.85;;;3.35;;
24483;SDS011;12643;51.620;7.548;2024-03-02T08:05:56;7.38;;;3.67;;
24483;SDS011;12643;51.620;7.548;2024-03-02T08:08:23;5.32;;;3.63;;
24483;SDS011;12643;51.620;7.548;2024-03-02T08:10:51;7.25;;;3.38;;
24483;SDS011;12643;51.620;7.548;2024-03-02T08:13:19;8.48;;;4.63;;
24483;SDS011;12643;51.620;7.548;2024-03-02T08:15:47;6.75;;;3.72;;
24483;SDS011;12643;51.620;7.548;2024-03-02T08:18:15;4.32;;;3.40;;
24483;SDS011;12643;51.620;7.548;2024-03-02T08:20:43;4.97;;;3.67;;
24483;SDS011;12643;51.620;7.548;2024-03-02T08:23:12;5.70;;;4.00;;
24483;SDS011;12643;51.620;7.548;2024-03-02T08:25:40;8.07;;;4.05;;
24483;SDS011;12643;51.620;7.548;2024-03-02T08:28:08;7.03;;;3.95;;
24483;SDS011;12643;51.620;7.548;2024-03-02T08:30:36;9.10;;;4.60;;
24483;SDS011;12643;51.620;7.548;2024-03-02T08:33:04;5.63;;;4.03;;
24483;SDS011;12643;51.620;7.548;2024-03-02T08:35:32;6.13;;;3.70;;
24483;SDS011;12643;51.620;7.548;2024-03-02T08:38:02;5.10;;;3.83;;
24483;SDS011;12643;51.620;7.548;2024-03-02T08:40:31;6.25;;;3.65;;
24483;SDS011;12643;51.620;7.548;2024-03-02T08:42:59;7.82;;;3.85;;
24483;SDS011;12643;51.620;7.548;2024-03-02T08:45:27;5.97;;;3.47;;
24483;SDS011;12643;51.620;7.548;2024-03-02T08:47:55;5.60;;;3.97;;
24483;SDS011;12643;51.620;7.548;2024-03-02T08:50:23;6.75;;;3.50;;
24483;SDS011;12643;51.620;7.548;2024-03-02T08:52:51;6.82;;;4.15;;
24483;SDS011;12643;51.620;7.548;2024-03-02T08:55:19;6.85;;;4.07;;
24483;SDS011;12643;51.620;7.548;2024-03-02T08:57:48;11.38;;;4.20;;
24483;SDS011;12643;51.620;7.548;2024-03-02T09:00:16;5.18;;;3.58;;
24483;SDS011;12643;51.620;7.548;2024-03-02T09:02:44;6.55;;;4.32;;
24483;SDS011;12643;51.620;7.548;2024-03-02T09:05:12;5.55;;;3.28;;
24483;SDS011;12643;51.620;7.548;2024-03-02T09:07:41;7.18;;;3.88;;
24483;SDS011;12643;51.620;7.548;2024-03-02T09:10:09;8.73;;;4.05;;
24483;SDS011;12643;51.620;7.548;2024-03-02T09:12:37;6.22;;;3.72;;
24483;SDS011;12643;51.620;7.548;2024-03-02T09:15:07;6.75;;;3.35;;
24483;SDS011;12643;51.620;7.548;2024-03-02T09:17:35;4.95;;;3.08;;
24483;SDS011;12643;51.620;7.548;2024-03-02T09:20:03;7.55;;;3.33;;
24483;SDS011;12643;51.620;7.548;2024-03-02T09:22:31;5.72;;;3.20;;
24483;SDS011;12643;51.620;7.548;2024-03-02T09:24:59;4.80;;;3.45;;
24483;SDS011;12643;51.620;7.548;2024-03-02T09:27:27;4.75;;;2.83;;
24483;SDS011;12643;51.620;7.548;2024-03-02T09:29:55;6.10;;;2.70;;
24483;SDS011;12643;51.620;7.548;2024-03-02T09:32:25;5.18;;;3.60;;
24483;SDS011;12643;51.620;7.548;2024-03-02T09:34:52;6.03;;;3.00;;
24483;SDS011;12643;51.620;7.548;2024-03-02T09:37:21;6.05;;;2.55;;
24483;SDS011;12643;51.620;7.548;2024-03-02T09:39:49;4.68;;;2.55;;
24483;SDS011;12643;51.620;7.548;2024-03-02T09:42:17;4.43;;;2.47;;
24483;SDS011;12643;51.620;7.548;2024-03-02T09:44:46;3.78;;;2.20;;
24483;SDS011;12643;51.620;7.548;2024-03-02T09:47:15;3.95;;;2.55;;
24483;SDS011;12643;51.620;7.548;2024-03-02T09:49:44;5.65;;;2.67;;
24483;SDS011;12643;51.620;7.548;2024-03-02T09:52:12;3.75;;;2.10;;
24483;SDS011;12643;51.620;7.548;2024-03-02T09:54:41;4.45;;;2.15;;
24483;SDS011;12643;51.620;7.548;2024-03-02T09:57:09;4.00;;;2.45;;
24483;SDS011;12643;51.620;7.548;2024-03-02T09:59:37;4.35;;;2.10;;
24483;SDS011;12643;51.620;7.548;2024-03-02T10:02:05;2.90;;;1.90;;
24483;SDS011;12643;51.620;7.548;2024-03-02T10:04:33;4.32;;;2.03;;
24483;SDS011;12643;51.620;7.548;2024-03-02T10:07:13;4.05;;;1.65;;
24483;SDS011;12643;51.620;7.548;2024-03-02T10:09:42;2.22;;;1.30;;
24483;SDS011;12643;51.620;7.548;2024-03-02T10:12:11;3.63;;;1.40;;
24483;SDS011;12643;51.620;7.548;2024-03-02T10:14:40;3.00;;;1.60;;
24483;SDS011;12643;51.620;7.548;2024-03-02T10:17:09;1.65;;;1.20;;
24483;SDS011;12643;51.620;7.548;2024-03-02T10:19:38;2.33;;;1.15;;
24483;SDS011;12643;51.620;7.548;2024-03-02T10:22:07;2.97;;;1.20;;
24483;SDS011;12643;51.620;7.548;2024-03-02T10:24:37;4.50;;;1.33;;
24483;SDS011;12643;51.620;7.548;2024-03-02T10:27:07;4.10;;;1.27;;
24483;SDS011;12643;51.620;7.548;2024-03-02T10:29:36;1.90;;;1.23;;
24483;SDS011;12643;51.620;7.548;2024-03-02T10:32:08;2.90;;;1.20;;
24483;SDS011;12643;51.620;7.548;2024-03-02T10:34:39;1.48;;;0.80;;
24483;SDS011;12643;51.620;7.548;2024-03-02T10:37:07;3.63;;;1.35;;
24483;SDS011;12643;51.620;7.548;2024-03-02T10:39:38;2.53;;;0.98;;
24483;SDS011;12643;51.620;7.548;2024-03-02T10:42:07;2.03;;;0.88;;
24483;SDS011;12643;51.620;7.548;2024-03-02T10:44:35;2.63;;;1.23;;
24483;SDS011;12643;51.620;7.548;2024-03-02T10:47:04;1.50;;;0.80;;
24483;SDS011;12643;51.620;7.548;2024-03-02T10:49:32;3.60;;;1.35;;
24483;SDS011;12643;51.620;7.548;2024-03-02T10:52:00;2.83;;;1.00;;
24483;SDS011;12643;51.620;7.548;2024-03-02T10:54:29;2.78;;;1.00;;
24483;SDS011;12643;51.620;7.548;2024-03-02T10:57:04;1.42;;;1.10;;
24483;SDS011;12643;51.620;7.548;2024-03-02T10:59:33;2.67;;;0.90;;
24483;SDS011;12643;51.620;7.548;2024-03-02T11:02:03;1.58;;;0.90;;
24483;SDS011;12643;51.620;7.548;2024-03-02T11:04:32;3.30;;;0.95;;
24483;SDS011;12643;51.620;7.548;2024-03-02T11:07:02;1.75;;;0.77;;
24483;SDS011;12643;51.620;7.548;2024-03-02T11:09:33;2.58;;;0.82;;
24483;SDS011;12643;51.620;7.548;2024-03-02T11:12:06;1.63;;;1.00;;
24483;SDS011;12643;51.620;7.548;2024-03-02T11:14:40;1.02;;;0.70;;
24483;SDS011;12643;51.620;7.548;2024-03-02T11:17:09;2.43;;;1.07;;
24483;SDS011;12643;51.620;7.548;2024-03-02T11:19:41;1.50;;;0.90;;
24483;SDS011;12643;51.620;7.548;2024-03-02T11:22:10;1.48;;;0.80;;
24483;SDS011;12643;51.620;7.548;2024-03-02T11:24:38;2.05;;;0.98;;
24483;SDS011;12643;51.620;7.548;2024-03-02T11:27:20;2.88;;;1.08;;
24483;SDS011;12643;51.620;7.548;2024-03-02T11:33:23;1.95;;;0.98;;
24483;SDS011;12643;51.620;7.548;2024-03-02T11:35:56;3.92;;;1.20;;
24483;SDS011;12643;51.620;7.548;2024-03-02T11:38:30;2.90;;;1.50;;
24483;SDS011;12643;51.620;7.548;2024-03-02T11:40:59;2.15;;;1.20;;
24483;SDS011;12643;51.620;7.548;2024-03-02T11:43:29;1.23;;;1.00;;
24483;SDS011;12643;51.620;7.548;2024-03-02T11:45:59;2.55;;;1.40;;
24483;SDS011;12643;51.620;7.548;2024-03-02T11:48:29;4.55;;;1.00;;
24483;SDS011;12643;51.620;7.548;2024-03-02T11:50:58;1.08;;;0.90;;
24483;SDS011;12643;51.620;7.548;2024-03-02T11:53:27;1.45;;;0.85;;
24483;SDS011;12643;51.620;7.548;2024-03-02T11:55:55;2.05;;;0.80;;
24483;SDS011;12643;51.620;7.548;2024-03-02T11:58:24;1.67;;;0.88;;
24483;SDS011;12643;51.620;7.548;2024-03-02T12:00:55;1.17;;;0.80;;
24483;SDS011;12643;51.620;7.548;2024-03-02T12:03:24;2.97;;;1.08;;
24483;SDS011;12643;51.620;7.548;2024-03-02T12:05:53;0.80;;;0.80;;
24483;SDS011;12643;51.620;7.548;2024-03-02T12:08:22;2.67;;;0.90;;
24483;SDS011;12643;51.620;7.548;2024-03-02T12:10:57;1.48;;;0.88;;
24483;SDS011;12643;51.620;7.548;2024-03-02T12:13:27;2.30;;;0.82;;
24483;SDS011;12643;51.620;7.548;2024-03-02T12:15:58;2.33;;;0.70;;
24483;SDS011;12643;51.620;7.548;2024-03-02T12:18:26;1.77;;;0.80;;
24483;SDS011;12643;51.620;7.548;2024-03-02T12:20:54;1.00;;;0.90;;
24483;SDS011;12643;51.620;7.548;2024-03-02T12:23:24;0.95;;;0.80;;
24483;SDS011;12643;51.620;7.548;2024-03-02T12:25:52;1.65;;;0.63;;
24483;SDS011;12643;51.620;7.548;2024-03-02T12:28:20;3.40;;;1.40;;
24483;SDS011;12643;51.620;7.548;2024-03-02T12:30:48;1.20;;;0.80;;
24483;SDS011;12643;51.620;7.548;2024-03-02T12:33:17;0.75;;;0.70;;
24483;SDS011;12643;51.620;7.548;2024-03-02T12:35:46;0.80;;;0.77;;
24483;SDS011;12643;51.620;7.548;2024-03-02T12:38:15;1.63;;;1.02;;
24483;SDS011;12643;51.620;7.548;2024-03-02T12:40:43;2.95;;;0.90;;
24483;SDS011;12643;51.620;7.548;2024-03-02T12:43:10;1.95;;;0.80;;
24483;SDS011;12643;51.620;7.548;2024-03-02T12:45:39;1.33;;;0.70;;
24483;SDS011;12643;51.620;7.548;2024-03-02T12:48:07;2.72;;;0.80;;
24483;SDS011;12643;51.620;7.548;2024-03-02T12:50:36;1.92;;;0.75;;
24483;SDS011;12643;51.620;7.548;2024-03-02T12:53:04;3.97;;;1.20;;
24483;SDS011;12643;51.620;7.548;2024-03-02T12:55:33;1.02;;;0.50;;
24483;SDS011;12643;51.620;7.548;2024-03-02T12:58:01;6.03;;;0.80;;
24483;SDS011;12643;51.620;7.548;2024-03-02T13:00:29;1.85;;;0.70;;
24483;SDS011;12643;51.620;7.548;2024-03-02T13:03:00;1.42;;;0.90;;
24483;SDS011;12643;51.620;7.548;2024-03-02T13:05:29;1.02;;;0.80;;
24483;SDS011;12643;51.620;7.548;2024-03-02T13:07:59;1.25;;;0.80;;
24483;SDS011;12643;51.620;7.548;2024-03-02T13:10:29;2.70;;;0.88;;
24483;SDS011;12643;51.620;7.548;2024-03-02T13:12:57;0.93;;;0.75;;
24483;SDS011;12643;51.620;7.548;2024-03-02T13:15:25;2.17;;;1.45;;
24483;SDS011;12643;51.620;7.548;2024-03-02T13:17:53;9.57;;;2.45;;
24483;SDS011;12643;51.620;7.548;2024-03-02T13:20:29;4.57;;;1.55;;
24483;SDS011;12643;51.620;7.548;2024-03-02T13:22:59;1.70;;;1.42;;
24483;SDS011;12643;51.620;7.548;2024-03-02T13:25:29;4.03;;;2.83;;
24483;SDS011;12643;51.620;7.548;2024-03-02T13:27:57;3.45;;;1.23;;
24483;SDS011;12643;51.620;7.548;2024-03-02T13:30:26;2.08;;;1.23;;
24483;SDS011;12643;51.620;7.548;2024-03-02T13:32:54;1.50;;;1.10;;
24483;SDS011;12643;51.620;7.548;2024-03-02T13:35:21;0.80;;;0.80;;
24483;SDS011;12643;51.620;7.548;2024-03-02T13:37:49;1.10;;;0.88;;
24483;SDS011;12643;51.620;7.548;2024-03-02T13:40:18;1.65;;;0.95;;
24483;SDS011;12643;51.620;7.548;2024-03-02T13:42:46;0.90;;;0.77;;
24483;SDS011;12643;51.620;7.548;2024-03-02T13:45:14;1.05;;;0.70;;
24483;SDS011;12643;51.620;7.548;2024-03-02T13:47:43;0.80;;;0.75;;
24483;SDS011;12643;51.620;7.548;2024-03-02T13:50:11;0.80;;;0.80;;
24483;SDS011;12643;51.620;7.548;2024-03-02T13:52:39;0.90;;;0.57;;
24483;SDS011;12643;51.620;7.548;2024-03-02T13:55:07;1.35;;;1.10;;
24483;SDS011;12643;51.620;7.548;2024-03-02T13:57:36;1.52;;;1.30;;
24483;SDS011;12643;51.620;7.548;2024-03-02T14:00:05;1.58;;;1.48;;
24483;SDS011;12643;51.620;7.548;2024-03-02T14:02:37;0.93;;;0.90;;
24483;SDS011;12643;51.620;7.548;2024-03-02T14:05:05;1.92;;;1.35;;
24483;SDS011;12643;51.620;7.548;2024-03-02T14:07:37;2.08;;;1.20;;
24483;SDS011;12643;51.620;7.548;2024-03-02T14:10:05;1.08;;;0.98;;
24483;SDS011;12643;51.620;7.548;2024-03-02T14:12:33;1.23;;;1.13;;
24483;SDS011;12643;51.620;7.548;2024-03-02T14:15:05;2.33;;;0.90;;
24483;SDS011;12643;51.620;7.548;2024-03-02T14:17:35;1.50;;;1.00;;
24483;SDS011;12643;51.620;7.548;2024-03-02T14:20:03;1.48;;;0.82;;
24483;SDS011;12643;51.620;7.548;2024-03-02T14:22:32;1.23;;;1.05;;
24483;SDS011;12643;51.620;7.548;2024-03-02T14:25:03;0.90;;;0.90;;
24483;SDS011;12643;51.620;7.548;2024-03-02T14:27:31;1.13;;;0.90;;
24483;SDS011;12643;51.620;7.548;2024-03-02T14:30:01;1.05;;;0.70;;
24483;SDS011;12643;51.620;7.548;2024-03-02T14:32:31;2.00;;;1.13;;
24483;SDS011;12643;51.620;7.548;2024-03-02T14:34:59;1.35;;;1.00;;
24483;SDS011;12643;51.620;7.548;2024-03-02T14:37:26;3.53;;;0.98;;
24483;SDS011;12643;51.620;7.548;2024-03-02T14:39:54;2.38;;;0.93;;
24483;SDS011;12643;51.620;7.548;2024-03-02T14:42:22;0.95;;;0.90;;
24483;SDS011;12643;51.620;7.548;2024-03-02T14:44:50;1.17;;;0.85;;
24483;SDS011;12643;51.620;7.548;2024-03-02T14:47:18;1.73;;;1.05;;
24483;SDS011;12643;51.620;7.548;2024-03-02T14:49:47;0.77;;;0.77;;
24483;SDS011;12643;51.620;7.548;2024-03-02T14:52:15;1.70;;;1.58;;
24483;SDS011;12643;51.620;7.548;2024-03-02T14:54:44;14.43;;;13.02;;
24483;SDS011;12643;51.620;7.548;2024-03-02T14:57:12;11.55;;;9.68;;
24483;SDS011;12643;51.620;7.548;2024-03-02T14:59:40;2.83;;;2.30;;
24483;SDS011;12643;51.620;7.548;2024-03-02T15:02:08;3.33;;;2.45;;